Time;durP1;ratioP1;P1;durP2;ratioP2;P2;SDS_P1;SDS_P2;PMS_P1;PMS_P2;Temp;Humidity;BMP_temperature;BMP_pressure;BME280_temperature;BME280_humidity;BME280_pressure;Samples;Min_cycle;Max_cycle;Signal;HPM_P1;HPM_P2
2023/11/19 00:01:00;;;;;;;;;2.50;2.50;;;;;;;;4904818;28;45230;-75
2023/11/19 00:03:25;;;;;;;;;3.75;3.00;;;;;;;;4904317;28;45243;-75
2023/11/19 00:05:50;;;;;;;;;4.25;4.00;;;;;;;;4903153;29;46375;-75
2023/11/19 00:08:15;;;;;;;;;4.00;3.00;;;;;;;;4903079;29;47356;-75
2023/11/19 00:10:40;;;;;;;;;4.25;3.75;;;;;;;;4904276;28;45371;-74
2023/11/19 00:13:06;;;;;;;;;4.50;4.50;;;;;;;;4904595;28;45446;-74
2023/11/19 00:15:32;;;;;;;;;5.75;5.00;;;;;;;;4903012;29;46785;-74
2023/11/19 00:17:57;;;;;;;;;5.00;5.00;;;;;;;;4903929;28;46058;-75
2023/11/19 00:20:22;;;;;;;;;5.25;5.25;;;;;;;;4904273;28;45272;-74
2023/11/19 00:22:50;;;;;;;;;3.25;3.25;;;;;;;;4904481;28;45298;-74
2023/11/19 00:25:16;;;;;;;;;4.75;4.75;;;;;;;;4902783;29;46232;-75
2023/11/19 00:27:44;;;;;;;;;4.75;4.50;;;;;;;;4904189;28;45698;-75
2023/11/19 00:30:10;;;;;;;;;2.75;2.75;;;;;;;;4904198;29;45407;-75
2023/11/19 00:32:36;;;;;;;;;3.25;3.25;;;;;;;;4902892;29;45279;-75
2023/11/19 00:35:02;;;;;;;;;4.75;3.50;;;;;;;;4903841;29;45479;-75
2023/11/19 00:37:28;;;;;;;;;4.00;4.00;;;;;;;;4903982;29;45200;-75
2023/11/19 00:39:53;;;;;;;;;2.75;2.00;;;;;;;;4904021;29;45191;-75
2023/11/19 00:42:18;;;;;;;;;4.50;4.50;;;;;;;;4904207;28;45156;-75
2023/11/19 00:44:43;;;;;;;;;1.50;1.50;;;;;;;;4904105;28;45380;-75
2023/11/19 00:47:08;;;;;;;;;1.80;1.80;;;;;;;;4904073;28;46215;-74
2023/11/19 00:49:34;;;;;;;;;4.00;3.00;;;;;;;;4903300;28;45363;-74
2023/11/19 00:51:59;;;;;;;;;1.00;1.00;;;;;;;;4904236;28;45303;-74
2023/11/19 00:54:25;;;;;;;;;0.00;0.00;;;;;;;;4903546;28;45348;-75
2023/11/19 00:56:52;;;;;;;;;2.00;2.00;;;;;;;;4907153;28;45521;-75
2023/11/19 00:59:17;;;;;;;;;2.00;2.00;;;;;;;;4920805;28;45387;-75
2023/11/19 01:01:42;;;;;;;;;0.75;0.75;;;;;;;;4923056;28;45355;-75
2023/11/19 01:04:08;;;;;;;;;2.00;2.00;;;;;;;;4921247;28;45951;-75
2023/11/19 01:06:33;;;;;;;;;2.00;2.00;;;;;;;;4922688;28;45370;-75
2023/11/19 01:08:58;;;;;;;;;2.60;2.40;;;;;;;;4922770;28;45310;-75
2023/11/19 01:11:24;;;;;;;;;2.00;2.00;;;;;;;;4922878;28;45298;-75
2023/11/19 01:13:50;;;;;;;;;1.00;1.00;;;;;;;;4922463;28;45333;-75
2023/11/19 01:16:15;;;;;;;;;2.00;2.00;;;;;;;;4922575;28;46193;-75
2023/11/19 01:18:41;;;;;;;;;2.75;2.75;;;;;;;;4920954;28;45350;-75
2023/11/19 01:21:06;;;;;;;;;2.00;2.00;;;;;;;;4922688;28;45231;-75
2023/11/19 01:23:32;;;;;;;;;3.00;3.00;;;;;;;;4922457;28;45291;-75
2023/11/19 01:25:58;;;;;;;;;5.25;4.00;;;;;;;;4922404;28;45258;-75
2023/11/19 01:28:23;;;;;;;;;4.25;4.00;;;;;;;;4922454;28;45223;-74
2023/11/19 01:30:50;;;;;;;;;6.00;6.00;;;;;;;;4921218;28;45236;-75
2023/11/19 01:33:15;;;;;;;;;3.50;3.50;;;;;;;;4922138;28;45346;-75
2023/11/19 01:35:41;;;;;;;;;5.00;5.00;;;;;;;;4922268;28;46954;-75
2023/11/19 01:38:08;;;;;;;;;3.00;3.00;;;;;;;;4922247;28;45296;-75
2023/11/19 01:40:33;;;;;;;;;2.00;2.00;;;;;;;;4922608;28;45310;-75
2023/11/19 01:42:58;;;;;;;;;2.00;2.00;;;;;;;;4922164;28;45306;-75
2023/11/19 01:45:30;;;;;;;;;1.60;1.60;;;;;;;;4922322;28;45310;-75
2023/11/19 01:47:56;;;;;;;;;1.00;1.00;;;;;;;;4921953;28;45227;-74
2023/11/19 01:50:22;;;;;;;;;0.50;0.50;;;;;;;;4921845;28;45374;-75
2023/11/19 01:52:47;;;;;;;;;0.00;0.00;;;;;;;;4922036;28;45429;-75
2023/11/19 01:55:13;;;;;;;;;1.75;1.75;;;;;;;;4920330;28;47426;-75
2023/11/19 01:57:41;;;;;;;;;1.00;1.00;;;;;;;;4910943;28;45275;-75
2023/11/19 02:00:06;;;;;;;;;1.25;1.00;;;;;;;;4903172;28;45312;-75
2023/11/19 02:02:31;;;;;;;;;0.75;0.00;;;;;;;;4901720;29;46178;-74
2023/11/19 02:04:57;;;;;;;;;0.50;0.00;;;;;;;;4902622;28;45277;-75
2023/11/19 02:07:24;;;;;;;;;1.75;1.75;;;;;;;;4902884;28;45220;-75
2023/11/19 02:09:49;;;;;;;;;2.75;1.00;;;;;;;;4902826;29;45326;-75
2023/11/19 02:12:15;;;;;;;;;0.00;0.00;;;;;;;;4904677;28;45259;-74
2023/11/19 02:14:40;;;;;;;;;1.00;1.00;;;;;;;;4904779;29;47178;-75
2023/11/19 02:17:05;;;;;;;;;0.50;0.25;;;;;;;;4906335;28;45294;-75
2023/11/19 02:19:30;;;;;;;;;0.50;0.50;;;;;;;;4906051;28;45274;-75
2023/11/19 02:21:55;;;;;;;;;0.75;0.75;;;;;;;;4904738;29;46020;-74
2023/11/19 02:24:22;;;;;;;;;1.00;0.00;;;;;;;;4906073;28;46318;-74
2023/11/19 02:26:58;;;;;;;;;2.00;0.00;;;;;;;;4904623;29;45362;-75
2023/11/19 02:29:23;;;;;;;;;0.00;0.00;;;;;;;;4905963;28;45365;-75
2023/11/19 02:31:48;;;;;;;;;1.00;0.00;;;;;;;;4905994;29;45283;-74
2023/11/19 02:34:13;;;;;;;;;1.00;0.80;;;;;;;;4905672;28;45526;-74
2023/11/19 02:36:41;;;;;;;;;2.00;2.00;;;;;;;;4905993;28;45318;-75
2023/11/19 02:39:10;;;;;;;;;1.00;1.00;;;;;;;;4904725;29;45311;-74
2023/11/19 02:41:35;;;;;;;;;2.75;1.00;;;;;;;;4905824;28;45327;-75
2023/11/19 02:44:00;;;;;;;;;1.00;1.00;;;;;;;;4904535;29;48378;-75
2023/11/19 02:46:26;;;;;;;;;0.00;0.00;;;;;;;;4904484;29;45335;-75
2023/11/19 02:48:51;;;;;;;;;2.25;2.00;;;;;;;;4905540;28;45349;-75
2023/11/19 02:51:18;;;;;;;;;2.75;1.00;;;;;;;;4904244;29;45412;-74
2023/11/19 02:53:44;;;;;;;;;0.00;0.00;;;;;;;;4905326;28;45314;-74
2023/11/19 02:56:15;;;;;;;;;1.25;1.00;;;;;;;;4905628;28;45341;-75
2023/11/19 02:58:44;;;;;;;;;0.75;0.75;;;;;;;;4923313;28;45630;-74
2023/11/19 03:01:18;;;;;;;;;4.00;2.25;;;;;;;;4924591;28;45341;-75
2023/11/19 03:03:49;;;;;;;;;1.00;1.00;;;;;;;;4924190;28;46346;-74
2023/11/19 03:06:14;;;;;;;;;0.50;0.50;;;;;;;;4923094;28;46125;-74
2023/11/19 03:08:39;;;;;;;;;0.80;0.80;;;;;;;;4924756;28;45580;-74
2023/11/19 03:11:04;;;;;;;;;0.00;0.00;;;;;;;;4922882;28;46054;-74
2023/11/19 03:13:30;;;;;;;;;0.00;0.00;;;;;;;;4924442;28;45238;-74
2023/11/19 03:15:55;;;;;;;;;0.00;0.00;;;;;;;;4924260;28;45294;-74
2023/11/19 03:18:20;;;;;;;;;0.50;0.50;;;;;;;;4924139;28;45465;-74
2023/11/19 03:20:49;;;;;;;;;1.75;1.25;;;;;;;;4924373;28;45626;-75
2023/11/19 03:23:14;;;;;;;;;1.00;1.00;;;;;;;;4922179;28;47553;-75
2023/11/19 03:25:40;;;;;;;;;0.20;0.00;;;;;;;;4924342;28;45364;-74
2023/11/19 03:28:06;;;;;;;;;1.25;0.50;;;;;;;;4924526;28;45410;-75
2023/11/19 03:30:31;;;;;;;;;0.00;0.00;;;;;;;;4922972;28;46523;-74
2023/11/19 03:32:56;;;;;;;;;0.00;0.00;;;;;;;;4923923;28;46333;-74
2023/11/19 03:35:22;;;;;;;;;0.25;0.25;;;;;;;;4923980;28;45439;-75
2023/11/19 03:37:47;;;;;;;;;0.00;0.00;;;;;;;;4924276;28;45552;-74
2023/11/19 03:40:13;;;;;;;;;0.75;0.75;;;;;;;;4924071;28;45412;-74
2023/11/19 03:42:39;;;;;;;;;0.00;0.00;;;;;;;;4923867;28;45350;-75
2023/11/19 03:45:05;;;;;;;;;2.00;2.00;;;;;;;;4922625;28;45833;-74
2023/11/19 03:47:30;;;;;;;;;0.00;0.00;;;;;;;;4924040;28;45472;-74
2023/11/19 03:49:55;;;;;;;;;1.00;0.50;;;;;;;;4923293;28;45342;-75
2023/11/19 03:52:21;;;;;;;;;0.75;0.75;;;;;;;;4922511;28;47054;-75
2023/11/19 03:54:46;;;;;;;;;0.75;0.00;;;;;;;;4923627;28;45301;-75
2023/11/19 03:57:15;;;;;;;;;0.50;0.00;;;;;;;;4917747;28;45576;-75
2023/11/19 03:59:40;;;;;;;;;1.75;0.00;;;;;;;;4903231;29;46421;-75
2023/11/19 04:02:06;;;;;;;;;0.00;0.00;;;;;;;;4904651;29;46086;-74
2023/11/19 04:04:31;;;;;;;;;0.00;0.00;;;;;;;;4904460;28;45304;-74
2023/11/19 04:06:57;;;;;;;;;0.00;0.00;;;;;;;;4904763;28;45523;-75
2023/11/19 04:09:22;;;;;;;;;0.00;0.00;;;;;;;;4904476;28;45511;-75
2023/11/19 04:11:48;;;;;;;;;0.25;0.00;;;;;;;;4904512;28;46308;-75
2023/11/19 04:14:14;;;;;;;;;1.00;1.00;;;;;;;;4904428;28;45246;-75
2023/11/19 04:16:39;;;;;;;;;1.75;0.00;;;;;;;;4904586;28;45224;-75
2023/11/19 04:19:06;;;;;;;;;1.00;1.00;;;;;;;;4904175;28;45324;-74
2023/11/19 04:21:31;;;;;;;;;0.50;0.00;;;;;;;;4904437;28;45372;-74
2023/11/19 04:23:56;;;;;;;;;0.00;0.00;;;;;;;;4903131;29;45966;-75
2023/11/19 04:26:21;;;;;;;;;0.50;0.00;;;;;;;;4904648;28;45421;-75
2023/11/19 04:28:49;;;;;;;;;0.00;0.00;;;;;;;;4904117;29;45224;-75
2023/11/19 04:31:15;;;;;;;;;0.00;0.00;;;;;;;;4904255;28;45331;-75
2023/11/19 04:33:41;;;;;;;;;0.00;0.00;;;;;;;;4902163;28;45296;-75
2023/11/19 04:36:07;;;;;;;;;0.00;0.00;;;;;;;;4902400;29;45359;-74
2023/11/19 04:38:32;;;;;;;;;2.00;0.00;;;;;;;;4902853;29;46144;-75
2023/11/19 04:40:57;;;;;;;;;0.20;0.00;;;;;;;;4902721;29;46976;-75
2023/11/19 04:43:22;;;;;;;;;0.00;0.00;;;;;;;;4904166;28;45367;-75
2023/11/19 04:45:47;;;;;;;;;0.00;0.00;;;;;;;;4904375;28;45315;-74
2023/11/19 04:48:12;;;;;;;;;0.00;0.00;;;;;;;;4903774;28;45335;-74
2023/11/19 04:50:38;;;;;;;;;0.25;0.25;;;;;;;;4903688;28;45320;-74
2023/11/19 04:53:03;;;;;;;;;0.00;0.00;;;;;;;;4903945;28;45303;-75
2023/11/19 04:55:28;;;;;;;;;0.00;0.00;;;;;;;;4903820;28;45554;-75
2023/11/19 04:57:54;;;;;;;;;0.00;0.00;;;;;;;;4914257;28;47286;-75
2023/11/19 05:00:19;;;;;;;;;0.25;0.25;;;;;;;;4922739;28;45434;-75
2023/11/19 05:02:44;;;;;;;;;1.25;1.00;;;;;;;;4922656;28;45448;-75
2023/11/19 05:05:09;;;;;;;;;1.25;0.00;;;;;;;;4922873;28;45242;-75
2023/11/19 05:07:34;;;;;;;;;1.75;0.00;;;;;;;;4922168;28;45318;-75
2023/11/19 05:10:00;;;;;;;;;1.60;1.60;;;;;;;;4921727;28;45431;-75
2023/11/19 05:12:25;;;;;;;;;0.00;0.00;;;;;;;;4921782;28;45327;-75
2023/11/19 05:14:50;;;;;;;;;1.50;0.00;;;;;;;;4921317;28;45331;-75
2023/11/19 05:17:19;;;;;;;;;0.00;0.00;;;;;;;;4922602;28;45485;-75
2023/11/19 05:19:44;;;;;;;;;2.00;0.00;;;;;;;;4922097;28;46488;-75
2023/11/19 05:22:09;;;;;;;;;0.00;0.00;;;;;;;;4922172;28;45523;-75
2023/11/19 05:24:35;;;;;;;;;0.50;0.50;;;;;;;;4921095;28;45289;-75
2023/11/19 05:27:01;;;;;;;;;3.00;2.00;;;;;;;;4922514;28;45524;-75
2023/11/19 05:29:27;;;;;;;;;0.00;0.00;;;;;;;;4922439;28;45398;-76
2023/11/19 05:31:52;;;;;;;;;1.00;1.00;;;;;;;;4922337;28;45326;-75
2023/11/19 05:34:17;;;;;;;;;1.00;0.00;;;;;;;;4922004;28;45276;-75
2023/11/19 05:36:43;;;;;;;;;1.00;1.00;;;;;;;;4922421;28;45319;-76
2023/11/19 05:39:08;;;;;;;;;0.50;0.00;;;;;;;;4922338;28;45402;-75
2023/11/19 05:41:33;;;;;;;;;1.25;0.25;;;;;;;;4922380;28;45363;-75
2023/11/19 05:43:58;;;;;;;;;0.00;0.00;;;;;;;;4921200;28;45289;-76
2023/11/19 05:46:25;;;;;;;;;0.00;0.00;;;;;;;;4921482;28;45268;-76
2023/11/19 05:48:51;;;;;;;;;0.00;0.00;;;;;;;;4921160;28;45383;-76
2023/11/19 05:51:16;;;;;;;;;1.50;0.75;;;;;;;;4921987;28;45442;-75
2023/11/19 05:53:41;;;;;;;;;0.00;0.00;;;;;;;;4922227;28;45324;-75
2023/11/19 05:56:09;;;;;;;;;0.25;0.25;;;;;;;;4920526;28;46370;-75
2023/11/19 05:58:35;;;;;;;;;1.00;0.00;;;;;;;;4904674;28;45409;-75
2023/11/19 06:01:00;;;;;;;;;1.00;0.25;;;;;;;;4901441;29;45748;-75
2023/11/19 06:03:26;;;;;;;;;1.50;0.25;;;;;;;;4902909;28;45274;-75
2023/11/19 06:05:52;;;;;;;;;0.25;0.25;;;;;;;;4902995;28;45326;-76
2023/11/19 06:08:17;;;;;;;;;1.50;1.50;;;;;;;;4902808;28;46171;-75
2023/11/19 06:10:43;;;;;;;;;0.25;0.25;;;;;;;;4902790;29;45342;-76
2023/11/19 06:13:10;;;;;;;;;1.00;0.50;;;;;;;;4903012;28;45473;-75
2023/11/19 06:15:36;;;;;;;;;0.50;0.50;;;;;;;;4902771;29;45345;-75
2023/11/19 06:18:01;;;;;;;;;0.25;0.00;;;;;;;;4902584;28;45915;-75
2023/11/19 06:20:28;;;;;;;;;0.50;0.50;;;;;;;;4902668;28;45275;-75
2023/11/19 06:22:54;;;;;;;;;1.00;1.00;;;;;;;;4902953;29;45293;-75
2023/11/19 06:25:19;;;;;;;;;1.00;0.00;;;;;;;;4901618;28;45343;-75
2023/11/19 06:27:44;;;;;;;;;0.75;0.75;;;;;;;;4901303;29;47472;-75
2023/11/19 06:30:10;;;;;;;;;0.00;0.00;;;;;;;;4902911;28;45251;-75
2023/11/19 06:32:35;;;;;;;;;1.25;0.25;;;;;;;;4902723;29;45254;-75
2023/11/19 06:35:00;;;;;;;;;0.75;0.75;;;;;;;;4901053;29;47157;-75
2023/11/19 06:37:27;;;;;;;;;0.00;0.00;;;;;;;;4902529;28;45276;-77
2023/11/19 06:39:52;;;;;;;;;0.50;0.50;;;;;;;;4903031;28;45326;-77
2023/11/19 06:42:17;;;;;;;;;0.00;0.00;;;;;;;;4901434;29;45549;-77
2023/11/19 06:44:42;;;;;;;;;1.00;1.00;;;;;;;;4901140;29;46092;-76
2023/11/19 06:47:07;;;;;;;;;0.80;0.80;;;;;;;;4901250;29;47002;-77
2023/11/19 06:49:32;;;;;;;;;0.00;0.00;;;;;;;;4900590;29;45822;-76
2023/11/19 06:51:58;;;;;;;;;1.75;0.25;;;;;;;;4902588;28;45280;-76
2023/11/19 06:54:23;;;;;;;;;0.25;0.25;;;;;;;;4902133;28;45328;-76
2023/11/19 06:56:49;;;;;;;;;1.00;1.00;;;;;;;;4905376;28;46225;-76
2023/11/19 06:59:14;;;;;;;;;0.75;0.75;;;;;;;;4923718;28;45244;-76
2023/11/19 07:01:39;;;;;;;;;1.25;0.00;;;;;;;;4915815;28;45382;-77
2023/11/19 07:04:08;;;;;;;;;1.00;1.00;;;;;;;;4905188;28;45311;-77
2023/11/19 07:06:34;;;;;;;;;1.00;0.00;;;;;;;;4903602;29;48015;-77
2023/11/19 07:08:59;;;;;;;;;5.00;2.25;;;;;;;;4900279;28;45357;-77
2023/11/19 07:11:24;;;;;;;;;2.00;1.20;;;;;;;;4897458;29;45437;-75
2023/11/19 07:13:49;;;;;;;;;2.00;1.00;;;;;;;;4901642;28;46186;-76
2023/11/19 07:16:15;;;;;;;;;1.25;0.25;;;;;;;;4915108;28;45319;-76
2023/11/19 07:18:41;;;;;;;;;0.50;0.00;;;;;;;;4903795;28;45956;-76
2023/11/19 07:21:10;;;;;;;;;1.00;0.00;;;;;;;;4904005;28;45527;-76
2023/11/19 07:23:35;;;;;;;;;0.25;0.25;;;;;;;;4899474;28;45387;-76
2023/11/19 07:26:01;;;;;;;;;2.00;1.25;;;;;;;;4903970;28;45698;-75
2023/11/19 07:28:28;;;;;;;;;1.00;1.00;;;;;;;;4905932;28;45302;-76
2023/11/19 07:30:55;;;;;;;;;0.75;0.75;;;;;;;;4904480;28;45245;-75
2023/11/19 07:33:21;;;;;;;;;3.25;2.00;;;;;;;;4902523;29;45466;-77
2023/11/19 07:35:46;;;;;;;;;1.00;1.00;;;;;;;;4902997;29;48339;-75
2023/11/19 07:38:11;;;;;;;;;3.00;0.50;;;;;;;;4904317;28;45877;-75
2023/11/19 07:40:36;;;;;;;;;0.00;0.00;;;;;;;;4904349;28;45459;-75
2023/11/19 07:43:01;;;;;;;;;0.80;0.00;;;;;;;;4903527;28;45501;-75
2023/11/19 07:45:27;;;;;;;;;1.50;1.50;;;;;;;;4904626;28;45508;-75
2023/11/19 07:47:52;;;;;;;;;4.00;1.25;;;;;;;;4903533;29;45328;-75
2023/11/19 07:50:20;;;;;;;;;1.50;0.25;;;;;;;;4903690;29;45422;-74
2023/11/19 07:52:45;;;;;;;;;0.75;0.00;;;;;;;;4902354;28;47271;-75
2023/11/19 07:55:10;;;;;;;;;1.00;1.00;;;;;;;;4902239;29;47193;-75
2023/11/19 07:57:36;;;;;;;;;1.00;1.00;;;;;;;;4912678;28;45663;-74
2023/11/19 08:00:04;;;;;;;;;1.00;1.00;;;;;;;;4905191;28;45806;-74
2023/11/19 08:02:29;;;;;;;;;2.00;1.00;;;;;;;;4903617;28;45503;-75
2023/11/19 08:04:55;;;;;;;;;1.75;0.00;;;;;;;;4903217;28;46332;-77
2023/11/19 08:07:20;;;;;;;;;1.00;1.00;;;;;;;;4904301;29;45307;-74
2023/11/19 08:09:45;;;;;;;;;2.00;2.00;;;;;;;;4900836;28;45535;-75
2023/11/19 08:12:10;;;;;;;;;2.25;1.50;;;;;;;;4900605;28;45471;-75
2023/11/19 08:14:36;;;;;;;;;2.00;1.75;;;;;;;;4900441;28;46078;-75
2023/11/19 08:17:02;;;;;;;;;2.00;1.50;;;;;;;;4897370;28;45895;-76
2023/11/19 08:19:27;;;;;;;;;4.00;2.50;;;;;;;;4902520;29;46456;-75
2023/11/19 08:21:52;;;;;;;;;2.20;1.00;;;;;;;;4900263;29;45497;-76
2023/11/19 08:24:17;;;;;;;;;0.75;0.00;;;;;;;;4893904;29;46073;-76
2023/11/19 08:26:42;;;;;;;;;0.00;0.00;;;;;;;;4901055;28;45507;-75
2023/11/19 08:29:09;;;;;;;;;1.00;1.00;;;;;;;;4891464;29;45742;-76
2023/11/19 08:31:34;;;;;;;;;1.00;1.00;;;;;;;;4898891;29;45398;-75
2023/11/19 08:33:59;;;;;;;;;1.50;1.50;;;;;;;;4900102;28;46319;-75
2023/11/19 08:36:24;;;;;;;;;1.00;1.00;;;;;;;;4900780;28;45468;-75
2023/11/19 08:38:51;;;;;;;;;1.75;1.00;;;;;;;;4900692;28;45330;-74
2023/11/19 08:41:17;;;;;;;;;1.00;1.00;;;;;;;;4896909;29;45372;-75
2023/11/19 08:43:43;;;;;;;;;1.00;1.00;;;;;;;;4900724;28;46176;-75
2023/11/19 08:46:11;;;;;;;;;0.00;0.00;;;;;;;;4900687;29;45843;-75
2023/11/19 08:48:36;;;;;;;;;2.00;1.50;;;;;;;;4899912;29;45421;-74
2023/11/19 08:51:02;;;;;;;;;2.00;1.00;;;;;;;;4900562;28;45640;-75
2023/11/19 08:53:27;;;;;;;;;1.75;1.75;;;;;;;;4900218;29;45386;-76
2023/11/19 08:55:52;;;;;;;;;1.60;1.60;;;;;;;;4900892;28;45715;-75
2023/11/19 08:58:18;;;;;;;;;1.50;1.50;;;;;;;;4898712;29;45615;-74
2023/11/19 09:00:43;;;;;;;;;1.75;1.00;;;;;;;;4898748;28;45884;-74
2023/11/19 09:03:09;;;;;;;;;0.40;0.40;;;;;;;;4902608;29;45616;-75
2023/11/19 09:05:34;;;;;;;;;40.00;34.33;;;;;;;;4904684;28;45327;-75
2023/11/19 09:07:59;;;;;;;;;1.25;1.25;;;;;;;;4903878;29;44760;-74
2023/11/19 09:10:24;;;;;;;;;1.80;1.40;;;;;;;;4912442;28;45192;-74
2023/11/19 09:12:49;;;;;;;;;3.25;1.50;;;;;;;;4912452;29;45223;-74
2023/11/19 09:15:15;;;;;;;;;4.20;0.80;;;;;;;;4906449;28;45331;-73
2023/11/19 09:17:40;;;;;;;;;2.50;1.00;;;;;;;;4904483;28;45292;-74
2023/11/19 09:20:06;;;;;;;;;2.50;2.50;;;;;;;;4907086;29;45999;-74
2023/11/19 09:22:31;;;;;;;;;5.75;5.75;;;;;;;;4906807;29;46246;-73
2023/11/19 09:24:59;;;;;;;;;3.00;3.00;;;;;;;;4904072;28;45436;-75
2023/11/19 09:27:25;;;;;;;;;2.00;2.00;;;;;;;;4907174;28;45293;-74
2023/11/19 09:29:56;;;;;;;;;4.00;2.75;;;;;;;;4920141;28;45329;-76
2023/11/19 09:32:21;;;;;;;;;5.25;5.25;;;;;;;;4908525;28;48109;-76
2023/11/19 09:34:47;;;;;;;;;4.50;1.25;;;;;;;;4904892;29;45315;-75
2023/11/19 09:37:12;;;;;;;;;5.20;3.00;;;;;;;;4903542;29;45430;-75
2023/11/19 09:39:37;;;;;;;;;3.00;3.00;;;;;;;;4903524;29;45558;-75
2023/11/19 09:42:02;;;;;;;;;2.00;2.00;;;;;;;;4899228;29;47198;-76
2023/11/19 09:44:28;;;;;;;;;2.00;2.00;;;;;;;;4902418;28;45343;-74
2023/11/19 09:46:53;;;;;;;;;2.00;2.00;;;;;;;;4904460;28;45541;-74
2023/11/19 09:49:21;;;;;;;;;5.25;3.75;;;;;;;;4902369;29;45359;-75
2023/11/19 09:51:46;;;;;;;;;2.00;2.00;;;;;;;;4902640;29;45381;-74
2023/11/19 09:54:12;;;;;;;;;1.75;1.75;;;;;;;;4900852;29;45462;-75
2023/11/19 09:56:38;;;;;;;;;2.75;2.50;;;;;;;;4902562;28;45216;-74
2023/11/19 09:59:04;;;;;;;;;4.25;2.50;;;;;;;;4903207;29;45255;-74
2023/11/19 10:01:31;;;;;;;;;6.00;3.00;;;;;;;;4909581;28;45235;-75
2023/11/19 10:03:57;;;;;;;;;4.00;3.25;;;;;;;;4911308;29;45315;-76
2023/11/19 10:06:22;;;;;;;;;4.25;2.50;;;;;;;;4908689;28;46058;-76
2023/11/19 10:08:48;;;;;;;;;6.00;3.00;;;;;;;;4902550;29;46061;-75
2023/11/19 10:11:13;;;;;;;;;6.00;2.75;;;;;;;;4901352;29;47262;-75
2023/11/19 10:13:38;;;;;;;;;5.25;3.00;;;;;;;;4907049;29;45254;-74
2023/11/19 10:16:04;;;;;;;;;3.00;3.00;;;;;;;;4914404;29;45302;-75
2023/11/19 10:18:30;;;;;;;;;29.00;26.33;;;;;;;;4908148;29;45509;-74
2023/11/19 10:20:55;;;;;;;;;4.00;2.50;;;;;;;;4905091;29;46094;-76
2023/11/19 10:23:20;;;;;;;;;4.50;3.00;;;;;;;;4886635;29;45415;-78
2023/11/19 10:25:46;;;;;;;;;4.25;3.25;;;;;;;;4883548;29;45427;-76
2023/11/19 10:28:11;;;;;;;;;3.00;3.00;;;;;;;;4882657;29;45399;-76
2023/11/19 10:30:36;;;;;;;;;5.00;2.75;;;;;;;;4883658;29;45412;-78
2023/11/19 10:33:06;;;;;;;;;3.80;3.80;;;;;;;;4885327;29;45291;-75
2023/11/19 10:35:31;;;;;;;;;4.00;3.75;;;;;;;;4887103;29;45289;-77
2023/11/19 10:37:58;;;;;;;;;6.50;4.00;;;;;;;;4886273;29;47210;-76
2023/11/19 10:40:26;;;;;;;;;4.75;3.25;;;;;;;;4886918;29;45374;-76
2023/11/19 10:43:01;;;;;;;;;2.75;2.75;;;;;;;;4900835;29;45473;-76
2023/11/19 10:45:26;;;;;;;;;4.25;4.25;;;;;;;;4905049;29;45374;-76
2023/11/19 10:47:52;;;;;;;;;2.50;2.00;;;;;;;;4904426;29;45643;-78
2023/11/19 10:50:17;;;;;;;;;4.25;4.25;;;;;;;;4905080;29;48477;-78
2023/11/19 10:52:43;;;;;;;;;5.25;3.75;;;;;;;;4906503;28;45274;-76
2023/11/19 10:55:11;;;;;;;;;5.25;4.75;;;;;;;;4908536;28;45272;-77
2023/11/19 10:57:37;;;;;;;;;5.75;2.00;;;;;;;;4920227;28;46207;-76
2023/11/19 11:00:10;;;;;;;;;5.25;3.50;;;;;;;;4924913;28;47232;-77
2023/11/19 11:02:37;;;;;;;;;2.50;2.00;;;;;;;;4925879;28;45265;-76
2023/11/19 11:05:03;;;;;;;;;4.25;3.75;;;;;;;;4925245;28;45361;-76
2023/11/19 11:07:30;;;;;;;;;6.50;3.25;;;;;;;;4924341;28;45365;-75
2023/11/19 11:09:55;;;;;;;;;4.25;3.00;;;;;;;;4924366;28;45413;-75
2023/11/19 11:12:22;;;;;;;;;5.00;3.50;;;;;;;;4924398;28;45318;-75
2023/11/19 11:14:47;;;;;;;;;3.25;3.00;;;;;;;;4924627;28;45348;-77
2023/11/19 11:17:16;;;;;;;;;4.25;3.75;;;;;;;;4924378;28;45219;-76
2023/11/19 11:19:42;;;;;;;;;5.50;3.00;;;;;;;;4922485;28;47715;-78
2023/11/19 11:22:08;;;;;;;;;5.50;4.00;;;;;;;;4923378;28;45366;-76
2023/11/19 11:24:33;;;;;;;;;2.25;1.75;;;;;;;;4923913;28;45294;-77
2023/11/19 11:27:16;;;;;;;;;6.00;2.00;;;;;;;;4924064;28;45624;-76
2023/11/19 11:29:41;;;;;;;;;4.00;2.00;;;;;;;;4924111;28;45723;-75
2023/11/19 11:32:06;;;;;;;;;3.75;3.75;;;;;;;;4922947;28;45565;-75
2023/11/19 11:34:46;;;;;;;;;5.80;5.60;;;;;;;;4920359;28;45524;-77
2023/11/19 11:37:20;;;;;;;;;4.00;4.00;;;;;;;;4903499;29;46010;-75
2023/11/19 11:39:46;;;;;;;;;8.50;4.00;;;;;;;;4904021;29;46023;-76
2023/11/19 11:42:17;;;;;;;;;4.00;2.00;;;;;;;;4905212;29;45330;-75
2023/11/19 11:44:58;;;;;;;;;4.75;3.25;;;;;;;;4903415;29;45380;-75
2023/11/19 11:47:23;;;;;;;;;3.75;2.50;;;;;;;;4903335;29;46176;-75
2023/11/19 11:49:49;;;;;;;;;6.25;4.50;;;;;;;;4904702;29;45259;-75
2023/11/19 11:52:15;;;;;;;;;3.00;3.00;;;;;;;;4903440;29;45255;-77
2023/11/19 11:54:41;;;;;;;;;5.75;4.75;;;;;;;;4904534;29;45267;-78
2023/11/19 11:57:10;;;;;;;;;4.50;1.50;;;;;;;;4909795;28;45335;-77
2023/11/19 11:59:38;;;;;;;;;1.75;1.75;;;;;;;;4923568;28;45305;-75
2023/11/19 12:02:03;;;;;;;;;6.25;5.00;;;;;;;;4923609;28;45350;-76
2023/11/19 12:04:29;;;;;;;;;4.50;3.25;;;;;;;;4912408;28;45460;-76
2023/11/19 12:07:21;;;;;;;;;4.25;4.25;;;;;;;;4901976;29;47333;-76
2023/11/19 12:09:54;;;;;;;;;6.00;6.00;;;;;;;;4899796;29;46410;-77
2023/11/19 12:12:21;;;;;;;;;7.25;4.75;;;;;;;;4904270;28;45379;-76
2023/11/19 12:14:59;;;;;;;;;5.00;3.25;;;;;;;;4899754;28;45458;-76
2023/11/19 12:17:44;;;;;;;;;4.75;3.75;;;;;;;;4901539;28;47379;-77
2023/11/19 12:20:11;;;;;;;;;4.50;3.25;;;;;;;;4896549;28;45417;-76
2023/11/19 12:22:40;;;;;;;;;3.00;3.00;;;;;;;;4903886;28;45288;-75
2023/11/19 12:25:05;;;;;;;;;6.00;6.00;;;;;;;;4903798;28;45460;-76
2023/11/19 12:27:31;;;;;;;;;5.50;5.00;;;;;;;;4903523;28;45311;-76
2023/11/19 12:29:56;;;;;;;;;2.50;2.00;;;;;;;;4903721;28;46527;-73
2023/11/19 12:32:22;;;;;;;;;3.25;1.00;;;;;;;;4902430;29;45993;-74
2023/11/19 12:34:47;;;;;;;;;4.25;2.75;;;;;;;;4903886;28;45805;-75
2023/11/19 12:37:12;;;;;;;;;4.75;4.75;;;;;;;;4903717;28;45228;-75
2023/11/19 12:39:37;;;;;;;;;2.75;2.75;;;;;;;;4902088;28;48358;-75
2023/11/19 12:42:03;;;;;;;;;2.40;1.60;;;;;;;;4903765;28;45288;-74
2023/11/19 12:44:28;;;;;;;;;3.75;3.75;;;;;;;;4903776;28;45250;-75
2023/11/19 12:47:13;;;;;;;;;6.25;4.75;;;;;;;;4902390;29;47088;-75
2023/11/19 12:49:39;;;;;;;;;4.25;4.25;;;;;;;;4902563;28;45267;-75
2023/11/19 12:52:11;;;;;;;;;2.75;2.75;;;;;;;;4902386;28;45144;-76
2023/11/19 12:54:36;;;;;;;;;5.25;3.50;;;;;;;;4902077;28;45481;-75
2023/11/19 12:57:02;;;;;;;;;5.75;4.00;;;;;;;;4895137;28;45582;-76
2023/11/19 12:59:28;;;;;;;;;2.50;2.00;;;;;;;;4896272;28;48233;-76
2023/11/19 13:01:54;;;;;;;;;3.75;2.00;;;;;;;;4900646;28;45433;-76
2023/11/19 13:04:19;;;;;;;;;3.00;2.75;;;;;;;;4900734;28;45382;-75
2023/11/19 13:06:47;;;;;;;;;9.50;5.75;;;;;;;;4899213;29;45506;-77
2023/11/19 13:09:26;;;;;;;;;4.50;4.00;;;;;;;;4898657;29;47230;-75
2023/11/19 13:11:52;;;;;;;;;4.25;3.75;;;;;;;;4896569;29;45533;-76
2023/11/19 13:14:18;;;;;;;;;4.25;3.75;;;;;;;;4897923;29;45445;-76
2023/11/19 13:16:45;;;;;;;;;2.50;1.75;;;;;;;;4897346;29;46513;-76
2023/11/19 13:19:10;;;;;;;;;2.25;2.25;;;;;;;;4897209;29;46034;-75
2023/11/19 13:21:36;;;;;;;;;2.00;2.00;;;;;;;;4899154;29;45473;-75
2023/11/19 13:24:02;;;;;;;;;4.50;3.00;;;;;;;;4899821;28;45696;-76
2023/11/19 13:26:27;;;;;;;;;5.25;4.00;;;;;;;;4898890;29;47199;-76
2023/11/19 13:28:52;;;;;;;;;3.00;3.00;;;;;;;;4899223;28;46134;-76
2023/11/19 13:31:18;;;;;;;;;3.00;3.00;;;;;;;;4899766;29;45717;-77
2023/11/19 13:33:43;;;;;;;;;4.75;4.50;;;;;;;;4899423;29;45855;-77
2023/11/19 13:36:09;;;;;;;;;3.75;3.00;;;;;;;;4900789;29;45706;-75
2023/11/19 13:38:37;;;;;;;;;6.50;4.00;;;;;;;;4900383;29;45418;-75
2023/11/19 13:41:04;;;;;;;;;5.75;5.25;;;;;;;;4899687;29;45561;-77
2023/11/19 13:43:29;;;;;;;;;5.25;4.75;;;;;;;;4882999;29;45317;-75
2023/11/19 13:45:55;;;;;;;;;5.50;2.75;;;;;;;;4881850;29;45295;-77
2023/11/19 13:48:20;;;;;;;;;5.25;4.00;;;;;;;;4881025;29;45329;-75
2023/11/19 13:50:45;;;;;;;;;2.75;2.75;;;;;;;;4844840;29;1117513;-74
2023/11/19 13:53:10;;;;;;;;;4.25;4.00;;;;;;;;4899507;29;45290;-75
2023/11/19 13:55:36;;;;;;;;;3.00;3.00;;;;;;;;4902107;28;45276;-75
2023/11/19 13:58:01;;;;;;;;;3.75;3.25;;;;;;;;4901931;28;48284;-75
2023/11/19 14:00:26;;;;;;;;;8.75;6.50;;;;;;;;4900523;29;46218;-77
2023/11/19 14:02:51;;;;;;;;;5.00;4.00;;;;;;;;4900458;29;45382;-75
2023/11/19 14:05:17;;;;;;;;;5.00;4.25;;;;;;;;4902546;29;45273;-76
2023/11/19 14:07:43;;;;;;;;;6.00;3.25;;;;;;;;4903404;29;45171;-75
2023/11/19 14:10:11;;;;;;;;;4.75;4.75;;;;;;;;4904538;29;45649;-75
2023/11/19 14:12:37;;;;;;;;;3.50;2.75;;;;;;;;4902965;29;45366;-75
2023/11/19 14:15:02;;;;;;;;;3.75;3.00;;;;;;;;4905112;29;45788;-74
2023/11/19 14:17:28;;;;;;;;;2.75;2.25;;;;;;;;4904934;29;45423;-75
2023/11/19 14:19:53;;;;;;;;;1.50;1.50;;;;;;;;4904704;29;45515;-76
2023/11/19 14:22:18;;;;;;;;;3.00;2.00;;;;;;;;4905527;29;45323;-74
2023/11/19 14:24:44;;;;;;;;;5.50;4.00;;;;;;;;4905683;29;45682;-74
2023/11/19 14:27:10;;;;;;;;;2.25;2.25;;;;;;;;4904344;29;45441;-75
2023/11/19 14:29:36;;;;;;;;;2.75;2.50;;;;;;;;4904339;29;45323;-74
2023/11/19 14:32:02;;;;;;;;;5.75;3.75;;;;;;;;4905257;28;45404;-74
2023/11/19 14:34:27;;;;;;;;;4.50;3.50;;;;;;;;4904806;28;46051;-74
2023/11/19 14:36:53;;;;;;;;;3.25;3.25;;;;;;;;4904998;29;45295;-74